Skip Navigation Links
NOAA logo - Click to go to the NOAA homepage
NOAA's National Weather Service
Alaska Aviation Weather Unit
  NWS logo - Click to go to the NWS homepage
Left Navbar Graphic     21 AKDT = 05 GMT

   
NOAA is celebrating 200 years of science, service, and stewardship. Visit the NOAA 200th celebration Web site to learn more.
USA.gov is the U.S. Government's official Web portal to all Federal, state and local government Web resources and services.
Facebook
NWS on Facebook

AAWU Home :: Display TAF Add Bookmark
SPECI PAOU 262305Z AUTO 11014KT 10SM -RA BKN028 OVC038 06/03 A2952 RMK
     AO2 RAB2257 P0000=

METAR PAOU 262356Z AUTO 00000KT 10SM -RA OVC028 06/03 A2953 RMK AO2
     RAB2257 SLP001 P0000 60000 T00610028 10061 20033 53005=

SPECI PAOU 270030Z AUTO 11013KT 10SM SCT025 BKN032 OVC040 07/03 A2954
     RMK AO2 RAE2359 P0000=

SPECI PAOU 270043Z AUTO 12012KT 10SM BKN034 OVC042 07/03 A2954 RMK AO2
     WSHFT 0023 RAE2359 P0000=

METAR PAOU 270056Z AUTO 16013KT 10SM BKN031 BKN040 OVC050 07/02 A2953
     RMK AO2 WSHFT 0023 RAE2359 SLP001 P0000 T00720017=

METAR PAOU 270156Z AUTO 25011KT 10SM OVC033 04/01 A2956 RMK AO2
 SLP009 T00440011=

METAR PAOU 270256Z AUTO 30006KT 10SM BKN039 OVC046 04/02 A2956 RMK AO2
     SLP011 60000 T00390017 53011=

METAR PAOU 270356Z AUTO 01005KT 10SM FEW030 OVC046 03/02 A2958 RMK AO2
     SLP016 T00330022=

SPECI PAOU 270453Z AUTO 03006KT 10SM FEW023 BKN027 OVC033 03/02 A2959
     RMK AO2=

METAR PAOU 270456Z AUTO 03006KT 10SM FEW023 SCT027 OVC033 03/02
 A2959 RMK AO2 SLP021 T00330022=


NOAA's National Weather Service
Alaska Aviation Weather Unit
6930 Sand Lake Road
Anchorage, AK 99502-1845
Disclaimer
Credits
Glossary
Privacy Policy
About Us
Career Opportunities
Contact AAWU Internet Services Site last modified: April, 17th 2012